Sorrell, Missouri
Current Conditions -  °F | °C
As of 10:55 PM on Friday 28 Nov 2014 (Local Time) from KIRK Reporting Station
Clear Clear  
Wind Chill: 39°   Ceiling: Unl
Heat Index: 44°   Visibility: 10mi
Dew Point: 36°   Wind: 9mph
Humidity: 73%   Direction: 190°S
Pressure: 29.74"   Gusts: NA
Location:  40.1663°N, 93.1629°W
Report Text: KIRK 290455Z AUTO 19008KT 10SM CLR 07/02 A2974 RMK AO2 SLP079 T00670022
Loading
Personal Weather Stations






























Interactive Weather Map New forecast layout! Learn more

10-Day Weather Forecast

Advertisements
Track Severe Weather on mobile